createdAt,value
2022-10-12T00:01:03.702Z,73.87
2022-10-12T00:03:32.001Z,74.37
2022-10-12T00:06:05.496Z,74.17
2022-10-12T00:08:37.298Z,73.97
2022-10-12T00:11:06.719Z,73.96
2022-10-12T00:13:35.584Z,74.06
2022-10-12T00:16:04.686Z,74.30
2022-10-12T00:18:33.443Z,74.09
2022-10-12T00:21:03.132Z,74.05
2022-10-12T00:23:33.267Z,74.36
2022-10-12T00:26:06.466Z,74.25
2022-10-12T00:28:35.781Z,73.92
2022-10-12T00:31:08.653Z,74.19
2022-10-12T00:33:37.821Z,74.46
2022-10-12T00:36:13.901Z,74.16
2022-10-12T00:38:42.226Z,74.58
2022-10-12T00:41:12.260Z,74.10
2022-10-12T00:43:42.204Z,74.05
2022-10-12T00:46:16.010Z,74.30
2022-10-12T00:48:47.231Z,74.42
2022-10-12T00:51:17.987Z,74.47
2022-10-12T00:53:50.785Z,74.66
2022-10-12T00:56:25.393Z,74.58
2022-10-12T00:58:55.116Z,74.79
2022-10-12T01:01:24.112Z,74.71
2022-10-12T01:03:52.645Z,74.69
2022-10-12T01:06:21.640Z,74.20
2022-10-12T01:08:50.676Z,74.37
2022-10-12T01:11:20.411Z,74.63
2022-10-12T01:13:48.643Z,74.57
2022-10-12T01:16:24.195Z,74.51
2022-10-12T01:19:00.017Z,74.80
2022-10-12T01:21:28.661Z,74.39
2022-10-12T01:24:28.815Z,74.20
2022-10-12T01:27:29.628Z,74.20
2022-10-12T01:30:13.286Z,74.49
2022-10-12T01:32:53.987Z,74.52
2022-10-12T01:35:27.945Z,74.73
2022-10-12T01:38:05.270Z,74.34
2022-10-12T01:40:38.714Z,74.85
2022-10-12T01:43:09.348Z,74.62
2022-10-12T01:45:38.986Z,74.84
2022-10-12T01:48:07.619Z,74.71
2022-10-12T01:50:51.150Z,74.13
2022-10-12T01:53:34.630Z,74.44
2022-10-12T01:56:10.366Z,74.46
2022-10-12T01:58:52.936Z,74.52
2022-10-12T02:01:30.986Z,74.46
2022-10-12T02:04:07.946Z,74.71
2022-10-12T02:06:40.747Z,74.57
2022-10-12T02:09:16.070Z,74.57
2022-10-12T02:11:47.777Z,74.41
2022-10-12T02:14:18.602Z,74.67
2022-10-12T02:16:54.387Z,74.39
2022-10-12T02:19:26.802Z,74.25
2022-10-12T02:21:57.296Z,74.50
2022-10-12T02:24:25.955Z,74.17
2022-10-12T02:26:55.882Z,74.40
2022-10-12T02:29:29.861Z,74.46
2022-10-12T02:32:06.031Z,74.40
2022-10-12T02:34:38.453Z,74.40
2022-10-12T02:37:10.963Z,74.03
2022-10-12T02:39:44.737Z,74.39
2022-10-12T02:42:17.938Z,74.38
2022-10-12T02:44:47.627Z,74.20
2022-10-12T02:47:19.328Z,74.48
2022-10-12T02:49:48.747Z,74.34
2022-10-12T02:52:17.085Z,74.61
2022-10-12T02:54:45.491Z,74.33
2022-10-12T02:57:13.814Z,74.87
2022-10-12T02:59:42.103Z,74.79
2022-10-12T03:02:10.922Z,74.24
2022-10-12T03:04:40.925Z,74.36
2022-10-12T03:07:09.148Z,74.70
2022-10-12T03:09:37.471Z,74.63
2022-10-12T03:12:05.927Z,74.10
2022-10-12T03:14:35.285Z,74.39
2022-10-12T03:17:03.566Z,74.44
2022-10-12T03:19:31.952Z,74.10
2022-10-12T03:22:01.664Z,74.08
2022-10-12T03:24:29.887Z,73.82
2022-10-12T03:26:58.202Z,73.37
2022-10-12T03:29:26.510Z,73.87
2022-10-12T03:31:55.382Z,73.36
2022-10-12T03:34:23.611Z,73.90
2022-10-12T03:36:52.487Z,73.94
2022-10-12T03:39:22.249Z,73.99
2022-10-12T03:41:50.442Z,73.81
2022-10-12T03:44:18.757Z,73.82
2022-10-12T03:46:47.095Z,74.08
2022-10-12T03:49:15.413Z,74.30
2022-10-12T03:51:43.824Z,74.70
2022-10-12T03:54:12.208Z,74.06
2022-10-12T03:56:41.991Z,74.37
2022-10-12T03:59:10.387Z,74.49
2022-10-12T04:01:45.095Z,73.98
2022-10-12T04:04:13.602Z,74.19
2022-10-12T04:06:41.841Z,73.97
2022-10-12T04:09:10.335Z,73.72
2022-10-12T04:11:39.587Z,74.11
2022-10-12T04:14:09.379Z,73.83
2022-10-12T04:16:38.887Z,74.33
2022-10-12T04:19:07.202Z,74.46
2022-10-12T04:21:35.476Z,74.39
2022-10-12T04:24:03.824Z,74.16
2022-10-12T04:26:32.074Z,73.93
2022-10-12T04:29:00.337Z,74.27
2022-10-12T04:31:30.797Z,73.78
2022-10-12T04:33:59.254Z,73.86
2022-10-12T04:36:27.981Z,73.98
2022-10-12T04:39:00.779Z,74.35
2022-10-12T04:41:29.556Z,74.47
2022-10-12T04:43:58.031Z,74.18
2022-10-12T04:46:26.468Z,74.57
2022-10-12T04:48:57.131Z,74.15
2022-10-12T04:51:25.543Z,74.21
2022-10-12T04:53:53.873Z,74.20
2022-10-12T04:56:22.111Z,74.31
2022-10-12T04:58:50.582Z,74.67
2022-10-12T05:01:19.105Z,74.55
2022-10-12T05:03:48.101Z,74.60
2022-10-12T05:06:17.809Z,74.50
2022-10-12T05:08:46.240Z,74.81
2022-10-12T05:11:15.007Z,74.35
2022-10-12T05:13:43.312Z,74.59
2022-10-12T05:16:11.522Z,74.83
2022-10-12T05:18:39.909Z,74.44
2022-10-12T05:21:08.175Z,74.81
2022-10-12T05:23:37.898Z,74.76
2022-10-12T05:26:06.338Z,74.42
2022-10-12T05:28:39.799Z,74.73
2022-10-12T05:31:09.656Z,74.91
2022-10-12T05:33:38.958Z,74.90
2022-10-12T05:36:08.525Z,74.32
2022-10-12T05:38:38.618Z,74.39
2022-10-12T05:41:07.531Z,74.60
2022-10-12T05:43:35.906Z,74.71
2022-10-12T05:46:04.716Z,74.73
2022-10-12T05:48:33.473Z,74.58
2022-10-12T05:51:01.758Z,74.68
2022-10-12T05:53:30.023Z,75.31
2022-10-12T05:56:01.192Z,74.82
2022-10-12T05:58:31.229Z,74.70
2022-10-12T06:01:06.141Z,74.50
2022-10-12T06:03:35.203Z,74.67
2022-10-12T06:06:04.957Z,74.61
2022-10-12T06:08:34.445Z,74.72
2022-10-12T06:11:04.647Z,75.02
2022-10-12T06:13:33.087Z,74.85
2022-10-12T06:16:01.302Z,75.32
2022-10-12T06:18:29.806Z,75.03
2022-10-12T06:23:46.702Z,75.19
2022-10-12T06:26:16.475Z,75.14
2022-10-12T06:28:44.830Z,75.02
2022-10-12T06:31:14.223Z,75.49
2022-10-12T06:33:42.548Z,75.48
2022-10-12T06:36:10.797Z,75.72
2022-10-12T06:38:39.123Z,75.94
2022-10-12T06:41:08.424Z,75.71
2022-10-12T06:43:38.219Z,75.83
2022-10-12T06:46:06.851Z,75.97
2022-10-12T06:48:35.165Z,76.10
2022-10-12T06:51:03.477Z,76.43
2022-10-12T06:53:33.140Z,76.45
2022-10-12T06:56:01.618Z,76.49
2022-10-12T06:58:29.981Z,76.51
2022-10-12T07:01:05.399Z,76.40
2022-10-12T07:03:37.110Z,76.66
2022-10-12T07:06:09.939Z,76.88
2022-10-12T07:08:42.189Z,76.58
2022-10-12T07:11:12.334Z,77.05
2022-10-12T07:13:40.826Z,77.22
2022-10-12T07:16:11.813Z,77.15
2022-10-12T07:18:43.869Z,77.58
2022-10-12T07:21:12.465Z,78.67
2022-10-12T07:23:45.712Z,79.07
2022-10-12T07:26:14.645Z,78.95
2022-10-12T07:28:43.031Z,77.76
2022-10-12T07:31:12.987Z,76.73
2022-10-12T07:33:41.622Z,76.09
2022-10-12T07:36:15.056Z,74.67
2022-10-12T07:38:45.513Z,72.75
2022-10-12T07:41:14.730Z,71.83
2022-10-12T07:43:43.476Z,70.60
2022-10-12T07:46:13.348Z,68.79
2022-10-12T07:48:47.300Z,68.51
2022-10-12T07:51:18.308Z,68.64
2022-10-12T07:53:46.517Z,68.65
2022-10-12T07:56:18.502Z,68.42
2022-10-12T07:58:50.316Z,68.30
2022-10-12T08:01:21.169Z,67.98
2022-10-12T08:03:49.748Z,67.44
2022-10-12T08:06:20.588Z,67.58
2022-10-12T08:08:49.686Z,67.92
2022-10-12T08:11:18.574Z,68.25
2022-10-12T08:13:47.768Z,67.75
2022-10-12T08:16:17.815Z,67.50
2022-10-12T08:18:47.938Z,67.45
2022-10-12T08:21:18.008Z,66.91
2022-10-12T08:23:46.818Z,65.59
2022-10-12T08:26:17.042Z,65.88
2022-10-12T08:28:46.069Z,66.56
2022-10-12T08:31:17.725Z,66.19
2022-10-12T08:33:47.538Z,65.55
2022-10-12T08:36:15.874Z,64.94
2022-10-12T08:38:45.579Z,64.40
2022-10-12T08:41:34.807Z,64.12
2022-10-12T08:44:17.233Z,64.05
2022-10-12T08:46:46.300Z,64.09
2022-10-12T08:49:20.988Z,63.67
2022-10-12T08:51:53.743Z,63.34
2022-10-12T08:54:26.166Z,63.87
2022-10-12T08:56:55.937Z,64.19
2022-10-12T08:59:26.217Z,64.45
2022-10-12T09:02:07.140Z,64.86
2022-10-12T09:04:47.862Z,64.52
2022-10-12T09:07:21.805Z,64.10
2022-10-12T09:10:03.875Z,64.17
2022-10-12T09:12:45.423Z,63.73
2022-10-12T09:15:17.633Z,63.53
2022-10-12T09:17:50.311Z,63.18
2022-10-12T09:20:22.503Z,62.25
2022-10-12T09:22:52.896Z,62.90
2022-10-12T09:25:25.552Z,62.96
2022-10-12T09:27:54.925Z,62.54
2022-10-12T09:30:23.232Z,62.81
2022-10-12T09:33:08.109Z,62.94
2022-10-12T09:35:38.669Z,62.80
2022-10-12T09:38:07.927Z,61.45
2022-10-12T09:40:36.279Z,61.34
2022-10-12T09:43:05.289Z,60.71
2022-10-12T09:45:36.205Z,60.71
2022-10-12T09:48:13.521Z,60.81
2022-10-12T09:50:47.057Z,61.17
2022-10-12T09:53:22.715Z,60.49
2022-10-12T09:56:11.741Z,60.35
2022-10-12T09:58:51.174Z,60.85
2022-10-12T10:01:30.373Z,61.00
2022-10-12T10:04:16.287Z,61.18
2022-10-12T10:06:48.052Z,60.67
2022-10-12T10:09:30.346Z,60.98
2022-10-12T10:11:59.166Z,60.93
2022-10-12T10:14:27.414Z,60.54
2022-10-12T10:16:56.021Z,60.08
2022-10-12T10:19:26.603Z,60.48
2022-10-12T10:21:56.855Z,60.70
2022-10-12T10:24:29.231Z,60.13
2022-10-12T10:26:59.758Z,60.07
2022-10-12T10:29:39.189Z,60.07
2022-10-12T10:32:24.340Z,59.31
2022-10-12T10:35:03.446Z,59.22
2022-10-12T10:37:34.442Z,58.85
2022-10-12T10:40:04.047Z,59.60
2022-10-12T10:42:34.968Z,59.74
2022-10-12T10:45:07.183Z,60.13
2022-10-12T10:47:43.104Z,60.37
2022-10-12T10:50:27.118Z,59.26
2022-10-12T10:53:00.244Z,59.21
2022-10-12T10:55:42.373Z,59.64
2022-10-12T10:58:22.034Z,59.64
2022-10-12T11:00:52.778Z,59.20
2022-10-12T11:03:28.454Z,58.55
2022-10-12T11:06:04.869Z,58.20
2022-10-12T11:08:38.344Z,57.23
2022-10-12T11:11:12.400Z,57.67
2022-10-12T11:13:45.163Z,56.79
2022-10-12T11:16:26.106Z,56.41
2022-10-12T11:18:57.466Z,56.33
2022-10-12T11:21:31.997Z,56.76
2022-10-12T11:24:10.531Z,56.63
2022-10-12T11:26:46.322Z,55.80
2022-10-12T11:29:17.991Z,55.24
2022-10-12T11:31:54.811Z,55.34
2022-10-12T11:34:26.201Z,55.85
2022-10-12T11:37:18.167Z,56.18
2022-10-12T11:39:49.946Z,56.64
2022-10-12T11:42:28.968Z,55.21
2022-10-12T11:44:57.829Z,54.77
2022-10-12T11:47:35.822Z,55.36
2022-10-12T11:50:06.831Z,53.82
2022-10-12T11:52:41.212Z,55.19
2022-10-12T11:55:28.168Z,55.06
2022-10-12T11:58:01.545Z,55.40
2022-10-12T12:00:38.477Z,54.68
2022-10-12T12:03:19.749Z,54.51
2022-10-12T12:05:48.158Z,54.68
2022-10-12T12:08:23.935Z,54.74
2022-10-12T12:11:08.414Z,55.05
2022-10-12T12:13:36.734Z,55.68
2022-10-12T12:16:45.015Z,55.42
2022-10-12T12:19:37.932Z,55.11
2022-10-12T12:22:23.514Z,53.43
2022-10-12T12:25:20.137Z,53.53
2022-10-12T12:27:53.169Z,53.12
2022-10-12T12:30:38.600Z,52.95
2022-10-12T12:33:28.032Z,52.53
2022-10-12T12:35:59.541Z,52.28
2022-10-12T12:38:33.575Z,51.60
2022-10-12T12:41:05.871Z,51.34
2022-10-12T12:44:01.626Z,51.30
2022-10-12T12:47:32.993Z,50.89
2022-10-12T12:50:00.963Z,50.82
2022-10-12T12:52:31.450Z,51.41
2022-10-12T12:55:23.594Z,51.62
2022-10-12T12:58:21.898Z,51.20
2022-10-12T13:01:05.417Z,50.98
2022-10-12T13:03:57.166Z,50.88
2022-10-12T13:07:15.721Z,50.14
2022-10-12T13:09:57.330Z,50.93
2022-10-12T13:12:37.372Z,51.20
2022-10-12T13:15:30.077Z,50.83
2022-10-12T13:18:46.331Z,50.87
2022-10-12T13:21:19.854Z,51.41
2022-10-12T13:23:50.355Z,50.45
2022-10-12T13:26:25.117Z,50.36
2022-10-12T13:28:55.274Z,51.82
2022-10-12T13:31:29.079Z,51.75
2022-10-12T13:34:10.996Z,50.34
2022-10-12T13:36:50.576Z,50.57
2022-10-12T13:39:20.835Z,50.73
2022-10-12T13:41:51.212Z,51.28
2022-10-12T13:44:23.426Z,50.13
2022-10-12T13:46:56.494Z,50.14
2022-10-12T13:49:28.516Z,50.76
2022-10-12T13:51:59.514Z,51.56
2022-10-12T13:54:35.593Z,51.22
2022-10-12T13:57:11.370Z,51.73
2022-10-12T13:59:40.723Z,51.81
2022-10-12T14:02:19.173Z,53.02
2022-10-12T14:04:48.954Z,52.72
2022-10-12T14:07:20.994Z,52.46
2022-10-12T14:09:54.572Z,51.98
2022-10-12T14:12:25.686Z,51.48
2022-10-12T14:14:54.964Z,51.00
2022-10-12T14:17:23.430Z,51.12
2022-10-12T14:19:56.193Z,50.75
2022-10-12T14:22:28.955Z,50.80
2022-10-12T14:25:16.612Z,51.13
2022-10-12T14:27:45.422Z,50.30
2022-10-12T14:30:19.890Z,50.03
2022-10-12T14:32:49.235Z,50.80
2022-10-12T14:35:28.026Z,50.71
2022-10-12T14:37:57.608Z,51.17
2022-10-12T14:40:35.346Z,51.59
2022-10-12T14:43:08.180Z,52.16
2022-10-12T14:45:37.437Z,52.75
2022-10-12T14:48:07.222Z,53.27
2022-10-12T14:50:36.988Z,53.79
2022-10-12T14:53:10.447Z,54.21
2022-10-12T14:55:38.835Z,54.53
2022-10-12T14:58:09.704Z,55.13
2022-10-12T15:00:40.472Z,55.19
2022-10-12T15:03:08.859Z,55.59
2022-10-12T15:05:38.560Z,55.73
2022-10-12T15:08:09.097Z,56.24
2022-10-12T15:10:38.423Z,56.31
2022-10-12T15:13:06.685Z,56.42
2022-10-12T15:15:39.675Z,56.63
2022-10-12T15:18:08.253Z,56.52
2022-10-12T15:20:38.375Z,56.93
2022-10-12T15:23:07.632Z,56.94
2022-10-12T15:25:46.128Z,56.72
2022-10-12T15:28:14.831Z,57.00
2022-10-12T15:31:11.707Z,57.30
2022-10-12T15:33:32.035Z,56.88
2022-10-12T15:36:01.768Z,56.78
2022-10-12T15:38:30.226Z,57.27
2022-10-12T15:40:59.135Z,57.35
2022-10-12T15:43:27.920Z,57.40
2022-10-12T15:45:57.613Z,57.79
2022-10-12T15:48:27.887Z,58.17
2022-10-12T15:50:56.228Z,57.97
2022-10-12T15:53:27.409Z,58.09
2022-10-12T15:55:57.217Z,58.44
2022-10-12T15:58:25.459Z,58.66
2022-10-12T16:00:53.966Z,59.01
2022-10-12T16:03:25.969Z,59.27
2022-10-12T16:05:54.988Z,59.09
2022-10-12T16:08:26.238Z,59.16
2022-10-12T16:10:54.747Z,59.11
2022-10-12T16:13:23.068Z,58.32
2022-10-12T16:15:51.470Z,58.58
2022-10-12T16:18:19.932Z,58.70
2022-10-12T16:20:53.624Z,58.68
2022-10-12T16:23:27.705Z,58.74
2022-10-12T16:25:56.567Z,58.51
2022-10-12T16:28:25.110Z,58.74
2022-10-12T16:30:53.867Z,58.65
2022-10-12T16:33:22.422Z,58.48
2022-10-12T16:35:50.743Z,58.86
2022-10-12T16:38:20.200Z,59.01
2022-10-12T16:40:51.061Z,59.55
2022-10-12T16:43:20.653Z,59.85
2022-10-12T16:45:56.954Z,60.53
2022-10-12T16:48:25.228Z,60.54
2022-10-12T16:50:54.564Z,60.72
2022-10-12T16:53:22.819Z,61.02
2022-10-12T16:55:52.966Z,61.34
2022-10-12T16:58:21.346Z,61.51
2022-10-12T17:00:49.604Z,62.28
2022-10-12T17:03:17.921Z,62.53
2022-10-12T17:05:46.110Z,62.93
2022-10-12T17:08:15.677Z,63.41
2022-10-12T17:10:45.283Z,63.72
2022-10-12T17:13:14.978Z,64.04
2022-10-12T17:15:44.122Z,63.84
2022-10-12T17:18:12.617Z,64.16
2022-10-12T17:20:40.840Z,64.46
2022-10-12T17:23:09.254Z,64.58
2022-10-12T17:25:37.537Z,64.63
2022-10-12T17:28:06.054Z,64.48
2022-10-12T17:30:38.442Z,64.85
2022-10-12T17:33:06.819Z,65.10
2022-10-12T17:35:39.834Z,65.19
2022-10-12T17:38:10.950Z,65.30
2022-10-12T17:40:40.158Z,65.78
2022-10-12T17:43:08.467Z,66.07
2022-10-12T17:45:40.754Z,66.41
2022-10-12T17:48:09.188Z,66.61
2022-10-12T17:50:39.383Z,66.80
2022-10-12T17:53:09.351Z,67.26
2022-10-12T17:55:58.942Z,67.15
2022-10-12T17:58:27.467Z,67.43
2022-10-12T18:00:57.344Z,67.60
2022-10-12T18:03:28.173Z,67.94
2022-10-12T18:05:56.387Z,68.10
2022-10-12T18:08:24.608Z,68.01
2022-10-12T18:10:52.897Z,68.05
2022-10-12T18:13:21.550Z,68.08
2022-10-12T18:15:50.025Z,68.07
2022-10-12T18:18:19.738Z,68.00
2022-10-12T18:20:48.346Z,68.19
2022-10-12T18:23:17.390Z,68.56
2022-10-12T18:25:47.671Z,68.70
2022-10-12T18:28:16.374Z,68.70
2022-10-12T18:30:50.369Z,68.94
2022-10-12T18:33:21.041Z,68.41
2022-10-12T18:35:49.313Z,68.77
2022-10-12T18:38:17.585Z,68.70
2022-10-12T18:40:47.635Z,69.02
2022-10-12T18:43:16.057Z,68.96
2022-10-12T18:45:45.276Z,69.09
2022-10-12T18:48:13.688Z,69.41
2022-10-12T18:50:43.330Z,69.31
2022-10-12T18:53:11.558Z,69.56
2022-10-12T18:55:40.583Z,69.79
2022-10-12T18:58:08.854Z,70.01
2022-10-12T19:00:37.259Z,70.35
2022-10-12T19:03:05.697Z,70.25
2022-10-12T19:05:33.936Z,70.29
2022-10-12T19:08:04.594Z,70.24
2022-10-12T19:10:32.865Z,66.66
2022-10-12T19:13:01.190Z,68.33
2022-10-12T19:15:29.863Z,68.82
2022-10-12T19:17:58.149Z,69.07
2022-10-12T19:20:26.482Z,69.23
2022-10-12T19:22:54.810Z,69.60
2022-10-12T19:25:24.542Z,70.14
2022-10-12T19:27:54.799Z,70.53
2022-10-12T19:30:23.067Z,70.69
2022-10-12T19:32:51.352Z,70.85
2022-10-12T19:35:20.529Z,70.77
2022-10-12T19:37:48.871Z,70.78
2022-10-12T19:40:18.191Z,70.68
2022-10-12T19:42:48.583Z,70.24
2022-10-12T19:45:17.039Z,70.31
2022-10-12T19:47:45.332Z,70.43
2022-10-12T19:50:13.599Z,70.23
2022-10-12T19:52:41.950Z,69.99
2022-10-12T19:55:11.284Z,70.15
2022-10-12T19:57:39.639Z,70.29
2022-10-12T20:00:11.124Z,70.28
2022-10-12T20:02:41.408Z,70.46
2022-10-12T20:05:10.615Z,70.39
2022-10-12T20:07:39.215Z,70.57
2022-10-12T20:10:08.863Z,70.53
2022-10-12T20:12:38.230Z,70.47
2022-10-12T20:15:07.899Z,70.19
2022-10-12T20:17:38.388Z,70.40
2022-10-12T20:20:07.627Z,70.37
2022-10-12T20:22:36.203Z,70.36
2022-10-12T20:25:09.410Z,70.57
2022-10-12T20:27:38.297Z,70.55
2022-10-12T20:30:07.962Z,70.69
2022-10-12T20:32:37.937Z,70.85
2022-10-12T20:35:07.089Z,70.70
2022-10-12T20:37:35.798Z,70.82
2022-10-12T20:40:04.233Z,71.02
2022-10-12T20:42:32.554Z,71.32
2022-10-12T20:45:00.848Z,71.08
2022-10-12T20:47:29.160Z,70.85
2022-10-12T20:49:58.851Z,70.83
2022-10-12T20:52:27.244Z,70.63
2022-10-12T20:54:56.502Z,70.61
2022-10-12T20:57:30.543Z,70.85
2022-10-12T21:00:00.569Z,71.05
2022-10-12T21:02:28.818Z,71.28
2022-10-12T21:04:58.490Z,71.14
2022-10-12T21:07:27.142Z,71.43
2022-10-12T21:09:55.370Z,71.68
2022-10-12T21:12:23.735Z,71.27
2022-10-12T21:14:52.026Z,70.87
2022-10-12T21:17:20.317Z,70.77
2022-10-12T21:19:49.542Z,70.38
2022-10-12T21:22:19.569Z,70.69
2022-10-12T21:24:48.082Z,70.92
2022-10-12T21:27:16.347Z,70.84
2022-10-12T21:29:44.643Z,71.10
2022-10-12T21:32:12.939Z,71.28
2022-10-12T21:34:41.178Z,71.22
2022-10-12T21:37:09.420Z,71.34
2022-10-12T21:39:39.082Z,71.39
2022-10-12T21:42:07.467Z,71.54
2022-10-12T21:44:35.696Z,71.54
2022-10-12T21:47:04.093Z,71.12
2022-10-12T21:49:33.934Z,70.81
2022-10-12T21:52:02.287Z,70.70
2022-10-12T21:54:30.728Z,70.72
2022-10-12T21:57:00.377Z,71.19
2022-10-12T21:59:29.345Z,70.91
2022-10-12T22:01:57.607Z,71.06
2022-10-12T22:04:27.337Z,71.25
2022-10-12T22:07:00.326Z,71.48
2022-10-12T22:09:28.962Z,71.07
2022-10-12T22:11:57.450Z,71.15
2022-10-12T22:14:27.154Z,71.42
2022-10-12T22:16:55.999Z,71.57
2022-10-12T22:19:24.602Z,71.70
2022-10-12T22:21:54.178Z,71.80
2022-10-12T22:24:28.678Z,71.87
2022-10-12T22:26:56.949Z,71.94
2022-10-12T22:29:26.620Z,71.90
2022-10-12T22:31:55.279Z,71.76
2022-10-12T22:34:23.534Z,71.63
2022-10-12T22:36:51.859Z,71.92
2022-10-12T22:39:25.761Z,71.48
2022-10-12T22:41:54.381Z,71.74
2022-10-12T22:44:22.878Z,71.89
2022-10-12T22:46:56.933Z,71.69
2022-10-12T22:49:25.176Z,71.60
2022-10-12T22:51:53.893Z,71.36
2022-10-12T22:54:22.236Z,71.34
2022-10-12T22:56:51.433Z,71.22
2022-10-12T22:59:19.871Z,71.48
2022-10-12T23:01:48.155Z,71.81
2022-10-12T23:04:17.867Z,71.41
2022-10-12T23:06:46.110Z,71.78
2022-10-12T23:09:14.467Z,71.79
2022-10-12T23:11:42.762Z,71.82
2022-10-12T23:14:12.118Z,71.90
2022-10-12T23:16:40.387Z,71.99
2022-10-12T23:19:08.656Z,72.08
2022-10-12T23:21:38.265Z,71.83
2022-10-12T23:24:07.195Z,71.89
2022-10-12T23:26:35.729Z,71.97
2022-10-12T23:29:04.103Z,71.79
2022-10-12T23:31:35.622Z,72.14
2022-10-12T23:34:06.779Z,72.25
2022-10-12T23:36:35.741Z,72.44
2022-10-12T23:39:06.863Z,72.49
2022-10-12T23:41:35.162Z,72.61
2022-10-12T23:44:03.633Z,72.91
2022-10-12T23:46:32.087Z,72.47
2022-10-12T23:49:00.334Z,72.73
2022-10-12T23:51:28.585Z,72.16
2022-10-12T23:53:56.877Z,71.62
2022-10-12T23:56:26.705Z,71.49
2022-10-12T23:58:55.065Z,71.51
